Time;durP1;ratioP1;P1;durP2;ratioP2;P2;SDS_P1;SDS_P2;PMS_P1;PMS_P2;Temp;Humidity;BMP_temperature;BMP_pressure;BME280_temperature;BME280_humidity;BME280_pressure;Samples;Min_cycle;Max_cycle;Signal;HPM_P1;HPM_P2
2022/11/07 00:00:19;;;;;;;2.00;1.45;;;19.50;58.50;;;;;;6292574;28;20380;-68
2022/11/07 00:03:20;;;;;;;1.88;1.60;;;19.50;58.60;;;;;;6295828;28;20025;-67
2022/11/07 00:06:20;;;;;;;1.50;1.35;;;19.50;58.60;;;;;;6295971;28;20028;-67
2022/11/07 00:09:21;;;;;;;1.60;1.35;;;19.50;58.60;;;;;;6296285;28;20021;-68
2022/11/07 00:12:22;;;;;;;2.28;1.50;;;19.50;58.80;;;;;;6296165;28;20052;-67
2022/11/07 00:15:22;;;;;;;1.83;1.60;;;19.50;58.50;;;;;;6296373;28;20067;-68
2022/11/07 00:18:23;;;;;;;2.58;1.80;;;19.50;58.50;;;;;;6295706;28;20038;-66
2022/11/07 00:21:23;;;;;;;1.67;1.40;;;19.50;58.50;;;;;;6295753;28;20020;-68
2022/11/07 00:24:24;;;;;;;2.08;1.48;;;19.50;58.50;;;;;;6296010;28;20503;-67
2022/11/07 00:27:25;;;;;;;2.08;1.50;;;19.50;58.50;;;;;;6295620;28;20017;-68
2022/11/07 00:30:25;;;;;;;1.80;1.33;;;19.50;58.60;;;;;;6311308;28;20034;-68
2022/11/07 00:33:26;;;;;;;1.50;1.23;;;19.50;58.50;;;;;;6296214;28;20055;-67
2022/11/07 00:36:28;;;;;;;2.08;1.40;;;19.50;58.70;;;;;;6295260;28;20031;-67
2022/11/07 00:39:28;;;;;;;1.83;1.42;;;19.50;58.50;;;;;;6295703;28;20035;-67
2022/11/07 00:42:29;;;;;;;1.80;1.40;;;19.50;58.50;;;;;;6295490;28;20076;-68
2022/11/07 00:45:29;;;;;;;1.58;1.48;;;19.50;58.60;;;;;;6295949;28;20430;-67
2022/11/07 00:48:30;;;;;;;2.50;1.73;;;19.50;58.60;;;;;;6295173;28;20040;-68
2022/11/07 00:51:31;;;;;;;2.10;1.67;;;19.50;58.60;;;;;;6295074;28;20050;-68
2022/11/07 00:54:32;;;;;;;3.42;1.80;;;19.50;58.40;;;;;;6295287;28;20036;-67
2022/11/07 00:57:32;;;;;;;3.35;1.90;;;19.50;58.50;;;;;;6295015;28;20032;-67
2022/11/07 01:00:33;;;;;;;2.13;1.60;;;19.50;58.50;;;;;;6295103;28;20395;-67
2022/11/07 01:06:53;;;;;;;1.60;1.35;;;19.50;59.30;;;;;;6295239;28;20040;-67
2022/11/07 01:09:53;;;;;;;1.95;1.50;;;19.50;58.60;;;;;;6294777;28;20047;-68
2022/11/07 01:12:54;;;;;;;1.67;1.45;;;19.50;58.70;;;;;;6293469;28;20024;-67
2022/11/07 01:15:54;;;;;;;1.58;1.30;;;19.50;58.70;;;;;;6294753;28;20047;-68
2022/11/07 01:18:56;;;;;;;1.92;1.63;;;19.50;58.40;;;;;;6294223;28;20029;-68
2022/11/07 01:21:56;;;;;;;2.40;1.60;;;19.50;58.50;;;;;;6294433;28;20020;-67
2022/11/07 01:24:57;;;;;;;2.00;1.40;;;19.50;58.50;;;;;;6294398;28;20063;-67
2022/11/07 01:27:58;;;;;;;2.15;1.58;;;19.50;58.60;;;;;;6294445;28;20029;-67
2022/11/07 01:31:05;;;;;;;2.78;1.60;;;19.50;58.60;;;;;;6294112;28;20479;-68
2022/11/07 01:34:06;;;;;;;1.45;1.35;;;19.50;58.50;;;;;;6294220;28;20055;-68
2022/11/07 01:37:06;;;;;;;1.60;1.50;;;19.50;58.60;;;;;;6293929;28;20028;-68
2022/11/07 01:40:07;;;;;;;2.40;1.45;;;19.50;58.50;;;;;;6294417;28;20048;-68
2022/11/07 01:43:09;;;;;;;1.98;1.58;;;19.50;58.50;;;;;;6293816;28;20021;-68
2022/11/07 01:46:10;;;;;;;2.70;1.27;;;19.50;58.60;;;;;;6293949;28;20021;-68
2022/11/07 01:49:31;;;;;;;1.80;1.40;;;19.40;58.40;;;;;;6292580;28;20041;-68
2022/11/07 01:52:39;;;;;;;1.85;1.52;;;19.50;58.60;;;;;;6293276;28;20521;-68
2022/11/07 01:55:39;;;;;;;1.65;1.50;;;19.50;58.50;;;;;;6293655;28;20043;-68
2022/11/07 01:58:40;;;;;;;2.38;1.60;;;19.50;58.70;;;;;;6293352;28;20017;-68
2022/11/07 02:01:42;;;;;;;1.73;1.33;;;19.40;58.50;;;;;;6293241;28;20029;-69
2022/11/07 02:04:43;;;;;;;2.28;1.50;;;19.40;58.40;;;;;;6293185;28;20037;-67
2022/11/07 02:07:43;;;;;;;1.73;1.42;;;19.50;58.60;;;;;;6293248;28;20060;-68
2022/11/07 02:10:44;;;;;;;2.47;1.58;;;19.50;58.60;;;;;;6293205;28;20028;-68
2022/11/07 02:13:45;;;;;;;2.25;1.40;;;19.40;58.40;;;;;;6293194;28;20020;-68
2022/11/07 02:16:46;;;;;;;2.00;1.58;;;19.50;58.60;;;;;;6293310;28;20403;-68
2022/11/07 02:19:51;;;;;;;1.90;1.40;;;19.40;58.40;;;;;;6293077;28;20055;-67
2022/11/07 02:23:21;;;;;;;3.05;1.30;;;19.40;58.50;;;;;;6292641;28;20024;-67
2022/11/07 02:26:23;;;;;;;1.98;1.60;;;19.40;58.60;;;;;;6260945;28;20049;-67
2022/11/07 02:29:25;;;;;;;2.03;1.48;;;19.40;58.60;;;;;;6279697;28;20024;-67
2022/11/07 02:32:25;;;;;;;1.65;1.45;;;19.40;58.60;;;;;;6292893;28;20503;-68
2022/11/07 02:35:39;;;;;;;2.63;1.40;;;19.40;58.60;;;;;;6292618;28;20050;-68
2022/11/07 02:38:40;;;;;;;1.60;1.30;;;19.40;58.40;;;;;;6293264;28;20012;-68
2022/11/07 02:41:41;;;;;;;1.40;1.23;;;19.40;58.50;;;;;;6293315;28;20020;-68
2022/11/07 02:44:42;;;;;;;2.35;1.50;;;19.40;58.70;;;;;;6292581;28;20075;-67
2022/11/07 02:47:42;;;;;;;1.92;1.52;;;19.50;58.50;;;;;;6292130;28;20028;-67
2022/11/07 02:50:43;;;;;;;2.05;1.60;;;19.40;58.60;;;;;;6292722;28;20068;-68
2022/11/07 02:53:45;;;;;;;2.13;1.50;;;19.40;58.70;;;;;;6292169;28;20402;-67
2022/11/07 02:56:45;;;;;;;1.92;1.42;;;19.40;58.60;;;;;;6292858;28;20029;-68
2022/11/07 02:59:47;;;;;;;2.33;1.63;;;19.40;58.70;;;;;;6292030;28;20025;-68
2022/11/07 03:02:48;;;;;;;1.45;1.23;;;19.40;58.50;;;;;;6292295;28;20032;-68
2022/11/07 03:05:48;;;;;;;1.63;1.30;;;19.40;58.60;;;;;;6292180;28;20067;-67
2022/11/07 03:08:49;;;;;;;1.20;1.10;;;19.40;58.60;;;;;;6292158;28;20495;-68
2022/11/07 03:11:50;;;;;;;1.55;1.33;;;19.40;58.50;;;;;;6291951;28;20031;-68
2022/11/07 03:14:50;;;;;;;1.35;1.10;;;19.40;58.60;;;;;;6291917;28;20043;-68
2022/11/07 03:17:51;;;;;;;1.73;1.40;;;19.40;58.70;;;;;;6292049;28;20055;-68
2022/11/07 03:20:51;;;;;;;1.90;1.45;;;19.40;58.60;;;;;;6292024;28;20028;-67
2022/11/07 03:23:52;;;;;;;1.30;1.13;;;19.40;58.50;;;;;;6291733;28;20032;-68
2022/11/07 03:26:53;;;;;;;1.48;1.30;;;19.40;58.60;;;;;;6313387;28;20039;-67
2022/11/07 03:29:53;;;;;;;2.30;1.77;;;19.40;58.70;;;;;;6310045;28;20077;-69
2022/11/07 03:32:54;;;;;;;1.55;1.35;;;19.40;58.60;;;;;;6291960;28;20028;-67
2022/11/07 03:35:55;;;;;;;1.77;1.30;;;19.40;58.50;;;;;;6293455;28;20055;-67
2022/11/07 03:38:55;;;;;;;1.73;1.40;;;19.40;58.50;;;;;;6297879;28;20195;-67
2022/11/07 03:41:56;;;;;;;1.40;1.30;;;19.40;58.60;;;;;;6296856;28;20025;-67
2022/11/07 03:44:56;;;;;;;1.42;1.30;;;19.40;58.70;;;;;;6296746;28;20119;-67
2022/11/07 03:47:57;;;;;;;1.65;1.30;;;19.40;58.50;;;;;;6296549;28;20032;-68
2022/11/07 03:50:58;;;;;;;1.50;1.33;;;19.40;58.60;;;;;;6296249;28;20127;-68
2022/11/07 03:53:58;;;;;;;1.27;1.02;;;19.40;58.80;;;;;;6296638;28;20074;-68
2022/11/07 03:56:59;;;;;;;1.30;1.20;;;19.40;58.50;;;;;;6296698;28;20032;-68
2022/11/07 03:59:59;;;;;;;1.45;1.27;;;19.40;58.60;;;;;;6296461;28;20020;-68
2022/11/07 04:03:03;;;;;;;1.95;1.27;;;19.40;58.80;;;;;;6296491;28;20103;-68
2022/11/07 04:06:04;;;;;;;1.67;1.30;;;19.40;58.60;;;;;;6296589;28;20128;-69
2022/11/07 04:09:05;;;;;;;1.75;1.33;;;19.40;58.70;;;;;;6295966;28;20036;-68
2022/11/07 04:18:44;;;;;;;1.45;1.23;;;19.40;58.60;;;;;;6296041;28;20036;-68
2022/11/07 04:21:44;;;;;;;1.20;1.10;;;19.40;58.60;;;;;;6295627;28;20141;-68
2022/11/07 04:24:45;;;;;;;1.20;1.00;;;19.40;58.70;;;;;;6295773;28;20024;-68
2022/11/07 04:27:46;;;;;;;2.05;1.20;;;19.40;58.60;;;;;;6295784;28;20029;-68
2022/11/07 04:30:46;;;;;;;1.95;1.25;;;19.40;58.70;;;;;;6295837;28;20025;-68
2022/11/07 04:33:47;;;;;;;1.25;1.02;;;19.40;58.70;;;;;;6295491;28;20383;-67
2022/11/07 04:36:47;;;;;;;1.40;1.25;;;19.40;58.70;;;;;;6295729;28;20060;-67
2022/11/07 04:39:48;;;;;;;1.30;1.20;;;19.40;58.60;;;;;;6295647;28;20028;-68
2022/11/07 04:42:49;;;;;;;1.40;1.20;;;19.40;58.70;;;;;;6295208;28;20078;-68
2022/11/07 04:45:51;;;;;;;1.48;1.20;;;19.40;58.70;;;;;;6294965;28;20124;-68
2022/11/07 04:48:51;;;;;;;1.88;1.30;;;19.40;58.60;;;;;;6295097;28;20273;-68
2022/11/07 04:51:56;;;;;;;1.40;1.10;;;19.40;58.60;;;;;;6295225;28;20427;-67
2022/11/07 04:54:58;;;;;;;1.63;1.25;;;19.40;58.60;;;;;;6294845;28;20396;-67
2022/11/07 04:57:58;;;;;;;1.48;1.13;;;19.40;58.70;;;;;;6295335;28;20077;-68
2022/11/07 05:00:59;;;;;;;1.17;1.08;;;19.40;58.70;;;;;;6294556;28;20028;-68
2022/11/07 05:03:59;;;;;;;1.00;0.90;;;19.40;58.60;;;;;;6294909;28;20305;-67
2022/11/07 05:07:00;;;;;;;1.23;1.00;;;19.40;58.70;;;;;;6294588;28;20076;-67
2022/11/07 05:10:00;;;;;;;1.55;1.30;;;19.40;58.70;;;;;;6294746;28;20028;-67
2022/11/07 05:13:01;;;;;;;1.65;1.20;;;19.40;58.60;;;;;;6294916;28;20025;-67
2022/11/07 05:16:02;;;;;;;1.27;1.10;;;19.40;58.60;;;;;;6294716;28;20108;-67
2022/11/07 05:19:03;;;;;;;1.15;1.05;;;19.40;58.50;;;;;;6294605;28;20062;-68
2022/11/07 05:25:22;;;;;;;1.35;1.13;;;19.40;58.70;;;;;;6294373;28;20036;-67
2022/11/07 05:28:29;;;;;;;1.58;1.20;;;19.40;58.70;;;;;;6294285;28;20397;-67
2022/11/07 05:31:30;;;;;;;1.27;1.00;;;19.40;58.60;;;;;;6294693;28;20123;-68
2022/11/07 05:34:30;;;;;;;1.67;1.25;;;19.40;58.70;;;;;;6294167;28;20375;-68
2022/11/07 05:37:31;;;;;;;1.40;1.10;;;19.40;58.60;;;;;;6294328;28;20032;-68
2022/11/07 05:40:34;;;;;;;1.20;1.00;;;19.40;58.70;;;;;;6294115;28;20028;-68
2022/11/07 05:43:37;;;;;;;1.80;1.25;;;19.40;58.60;;;;;;6293950;28;20096;-67
2022/11/07 05:46:37;;;;;;;2.03;1.20;;;19.40;58.70;;;;;;6293690;28;20031;-68
2022/11/07 05:49:38;;;;;;;0.80;0.80;;;19.40;58.70;;;;;;6294007;28;20309;-68
2022/11/07 05:52:38;;;;;;;1.23;1.08;;;19.40;58.70;;;;;;6293759;28;20369;-67
2022/11/07 05:55:39;;;;;;;1.50;1.30;;;19.40;58.60;;;;;;6294070;28;20035;-68
2022/11/07 05:58:39;;;;;;;1.20;0.95;;;19.40;58.70;;;;;;6292930;28;20028;-68
2022/11/07 06:01:40;;;;;;;1.27;1.00;;;19.40;58.70;;;;;;6286339;28;20059;-67
2022/11/07 06:04:41;;;;;;;1.60;1.10;;;19.40;58.60;;;;;;6293740;28;20036;-67
2022/11/07 06:07:41;;;;;;;1.30;1.10;;;19.40;58.70;;;;;;6293460;28;20024;-68
2022/11/07 06:10:42;;;;;;;1.00;0.90;;;19.40;58.70;;;;;;6293305;28;20038;-68
2022/11/07 06:13:43;;;;;;;1.40;1.08;;;19.40;58.70;;;;;;6293065;28;20016;-67
2022/11/07 06:16:43;;;;;;;1.00;0.90;;;19.40;58.80;;;;;;6293463;28;20043;-68
2022/11/07 06:19:44;;;;;;;1.17;1.05;;;19.40;58.70;;;;;;6293486;28;20039;-68
2022/11/07 06:22:45;;;;;;;1.23;1.10;;;19.40;58.70;;;;;;6293295;28;20028;-68
2022/11/07 06:25:45;;;;;;;1.67;1.10;;;19.40;58.60;;;;;;6317000;28;20053;-68
2022/11/07 06:28:46;;;;;;;2.40;1.00;;;19.40;58.60;;;;;;6303038;28;20029;-68
2022/11/07 06:31:47;;;;;;;1.23;1.10;;;19.40;58.60;;;;;;6292650;28;20029;-68
2022/11/07 06:34:47;;;;;;;1.00;0.90;;;19.40;58.60;;;;;;6292692;28;20032;-68
2022/11/07 06:37:48;;;;;;;1.10;1.00;;;19.40;58.60;;;;;;6293143;28;20039;-68
2022/11/07 06:40:48;;;;;;;0.88;0.85;;;19.40;58.60;;;;;;6292357;28;20395;-68
2022/11/07 06:43:50;;;;;;;1.65;1.20;;;19.40;58.70;;;;;;6292720;28;20028;-68
2022/11/07 06:46:51;;;;;;;0.90;0.90;;;19.40;58.70;;;;;;6292831;28;20031;-67
2022/11/07 06:49:51;;;;;;;1.90;1.08;;;19.40;58.70;;;;;;6292333;28;20020;-68
2022/11/07 06:52:52;;;;;;;0.98;0.80;;;19.40;58.80;;;;;;6292390;28;20049;-68
2022/11/07 06:55:53;;;;;;;0.98;0.90;;;19.40;58.50;;;;;;6292327;28;20032;-68
2022/11/07 06:58:53;;;;;;;0.73;0.73;;;19.40;58.60;;;;;;6292049;28;20020;-69
2022/11/07 07:01:54;;;;;;;1.17;1.00;;;19.40;58.70;;;;;;6274326;28;20033;-68
2022/11/07 07:04:55;;;;;;;1.13;1.00;;;19.40;58.80;;;;;;6288875;28;20494;-68
2022/11/07 07:07:55;;;;;;;1.30;1.08;;;19.40;58.50;;;;;;6291800;28;20106;-68
2022/11/07 07:11:01;;;;;;;1.40;1.20;;;19.40;58.60;;;;;;6293979;28;20033;-68
2022/11/07 07:14:01;;;;;;;1.33;1.02;;;19.40;58.80;;;;;;6294285;28;20043;-69
2022/11/07 07:17:02;;;;;;;1.88;1.17;;;19.40;58.80;;;;;;6282226;28;20705;-68
2022/11/07 07:20:04;;;;;;;1.63;1.20;;;19.40;58.80;;;;;;6286699;28;20957;-67
2022/11/07 07:23:04;;;;;;;1.15;1.00;;;19.40;58.50;;;;;;6292825;28;20453;-68
2022/11/07 07:26:10;;;;;;;1.90;0.90;;;19.40;58.60;;;;;;6289636;28;20043;-67
2022/11/07 07:29:11;;;;;;;1.00;0.90;;;19.40;58.70;;;;;;6293051;28;20044;-68
2022/11/07 07:32:11;;;;;;;1.50;1.20;;;19.40;58.50;;;;;;6292865;28;20024;-68
2022/11/07 07:35:12;;;;;;;1.10;0.90;;;19.40;58.70;;;;;;6290022;28;20024;-68
2022/11/07 07:38:13;;;;;;;1.25;1.10;;;19.40;58.80;;;;;;6292476;28;20056;-68
2022/11/07 07:41:14;;;;;;;5.03;1.20;;;19.40;58.70;;;;;;6293245;28;20073;-68
2022/11/07 07:44:15;;;;;;;1.50;1.10;;;19.40;58.70;;;;;;6292906;28;20418;-68
2022/11/07 07:47:15;;;;;;;1.38;0.93;;;19.40;58.80;;;;;;6293052;28;20031;-68
2022/11/07 07:50:16;;;;;;;1.40;1.08;;;19.40;58.70;;;;;;6292864;28;20056;-68
2022/11/07 07:53:17;;;;;;;1.90;1.20;;;19.40;58.90;;;;;;6285989;28;20044;-68
2022/11/07 07:56:18;;;;;;;3.13;1.08;;;19.40;58.80;;;;;;6293288;28;20025;-68
2022/11/07 07:59:18;;;;;;;2.92;1.08;;;19.40;58.70;;;;;;6293827;28;20032;-68
2022/11/07 08:02:19;;;;;;;2.30;1.30;;;19.40;58.20;;;;;;6292897;28;20032;-68
2022/11/07 08:05:19;;;;;;;5.30;1.30;;;19.40;58.60;;;;;;6293448;28;20317;-68
2022/11/07 08:08:20;;;;;;;2.17;1.10;;;19.40;58.40;;;;;;6308834;28;20391;-68
2022/11/07 08:11:21;;;;;;;2.17;0.90;;;19.40;58.30;;;;;;6293229;28;20031;-68
2022/11/07 08:14:22;;;;;;;1.33;1.10;;;19.40;58.40;;;;;;6293565;28;20027;-68
2022/11/07 08:17:23;;;;;;;1.45;1.10;;;19.40;58.70;;;;;;6293630;28;20032;-68
2022/11/07 08:20:24;;;;;;;2.20;1.13;;;19.40;58.50;;;;;;6293521;28;20029;-67
2022/11/07 08:23:25;;;;;;;3.63;1.10;;;19.40;58.30;;;;;;6297481;28;20028;-68
2022/11/07 08:26:25;;;;;;;1.73;1.02;;;19.40;58.50;;;;;;6297913;28;20025;-69
2022/11/07 08:29:26;;;;;;;1.27;1.00;;;19.40;58.40;;;;;;6298170;28;20099;-68
2022/11/07 08:32:27;;;;;;;2.35;1.25;;;19.40;58.60;;;;;;6297981;28;20024;-68
2022/11/07 08:35:29;;;;;;;1.30;0.90;;;19.40;58.30;;;;;;6297470;28;20032;-68
2022/11/07 08:38:32;;;;;;;1.23;0.95;;;19.40;58.20;;;;;;6297895;28;20382;-68
2022/11/07 08:41:32;;;;;;;1.88;1.00;;;19.40;58.40;;;;;;6297453;28;20036;-69
2022/11/07 08:44:35;;;;;;;1.50;1.10;;;19.40;58.50;;;;;;6297440;28;20073;-68
2022/11/07 08:47:36;;;;;;;1.17;0.90;;;19.40;58.40;;;;;;6297286;28;20403;-68
2022/11/07 08:50:37;;;;;;;1.48;0.90;;;19.40;58.30;;;;;;6297150;28;20033;-68
2022/11/07 08:53:37;;;;;;;1.50;0.82;;;19.40;58.20;;;;;;6297617;28;20025;-67
2022/11/07 08:56:38;;;;;;;1.08;0.98;;;19.40;58.40;;;;;;6297098;28;20028;-68
2022/11/07 08:59:39;;;;;;;1.00;0.90;;;19.40;58.30;;;;;;6297540;28;20513;-68
2022/11/07 09:02:39;;;;;;;1.13;0.90;;;19.40;58.30;;;;;;6296894;28;20036;-68
2022/11/07 09:05:40;;;;;;;1.10;0.77;;;19.40;58.40;;;;;;6297002;28;20031;-68
2022/11/07 09:08:40;;;;;;;2.80;1.00;;;19.40;58.30;;;;;;6296959;28;20025;-69
2022/11/07 09:11:41;;;;;;;1.40;1.20;;;19.40;58.40;;;;;;6296598;28;20036;-68
2022/11/07 09:14:42;;;;;;;1.15;0.85;;;19.40;58.90;;;;;;6297155;28;20013;-68
2022/11/07 09:17:42;;;;;;;1.30;1.00;;;19.40;58.30;;;;;;6296567;28;20029;-68
2022/11/07 09:20:43;;;;;;;1.63;1.00;;;19.40;58.30;;;;;;6297937;28;20025;-67
2022/11/07 09:23:44;;;;;;;1.67;0.88;;;19.40;58.30;;;;;;6296377;28;20429;-68
2022/11/07 09:26:44;;;;;;;1.00;0.88;;;19.40;58.30;;;;;;6296358;28;20104;-67
2022/11/07 09:29:45;;;;;;;3.05;1.08;;;19.40;58.40;;;;;;6296424;28;20316;-67
2022/11/07 09:32:46;;;;;;;1.50;0.90;;;19.40;58.60;;;;;;6295429;28;20070;-68
2022/11/07 09:35:49;;;;;;;1.42;0.93;;;19.40;58.40;;;;;;6296063;28;20024;-67
2022/11/07 09:38:50;;;;;;;2.33;0.93;;;19.40;58.40;;;;;;6296118;28;20028;-68
2022/11/07 09:42:19;;;;;;;0.95;0.80;;;19.40;58.30;;;;;;6295779;28;20024;-68
2022/11/07 09:45:20;;;;;;;2.15;0.93;;;19.40;58.60;;;;;;6296005;28;20021;-68
2022/11/07 09:48:24;;;;;;;1.35;0.80;;;19.40;58.40;;;;;;6295843;28;20491;-67
2022/11/07 09:51:48;;;;;;;1.25;0.90;;;19.40;59.20;;;;;;6295654;28;20539;-68
2022/11/07 09:55:01;;;;;;;1.48;0.95;;;19.40;58.50;;;;;;6295496;28;20491;-69
2022/11/07 09:58:05;;;;;;;0.98;0.80;;;19.40;58.40;;;;;;6295362;28;20052;-67
2022/11/07 10:01:12;;;;;;;1.10;0.98;;;19.40;58.30;;;;;;6295591;28;20051;-68
2022/11/07 10:04:16;;;;;;;0.90;0.80;;;19.40;58.50;;;;;;6295714;28;20487;-68
2022/11/07 10:07:32;;;;;;;0.82;0.77;;;19.40;58.50;;;;;;6295572;28;20087;-68
2022/11/07 10:10:48;;;;;;;1.40;0.70;;;19.40;58.60;;;;;;6295487;28;20037;-69
2022/11/07 10:14:08;;;;;;;0.80;0.68;;;19.40;58.60;;;;;;6270668;28;20021;-67
2022/11/07 10:17:38;;;;;;;1.00;0.82;;;19.40;58.60;;;;;;6294243;28;20054;-67
2022/11/07 10:21:16;;;;;;;1.45;0.80;;;19.40;58.40;;;;;;6290598;28;20186;-68
2022/11/07 10:24:26;;;;;;;1.15;0.90;;;19.40;58.40;;;;;;6274213;28;20480;-68
2022/11/07 10:27:26;;;;;;;1.15;0.90;;;19.40;58.40;;;;;;6295203;28;20429;-68
2022/11/07 10:30:27;;;;;;;1.35;0.80;;;19.40;58.50;;;;;;6295186;28;20032;-68
2022/11/07 10:33:59;;;;;;;1.42;1.08;;;19.40;58.50;;;;;;6294980;28;20028;-67
2022/11/07 10:36:59;;;;;;;1.42;0.80;;;19.40;58.40;;;;;;6294990;28;20031;-68
2022/11/07 10:40:00;;;;;;;1.17;0.90;;;19.40;58.30;;;;;;6279917;28;20028;-67
2022/11/07 10:43:04;;;;;;;1.33;0.73;;;19.40;58.30;;;;;;6293016;28;20100;-68
2022/11/07 10:46:30;;;;;;;1.33;0.80;;;19.40;58.20;;;;;;6293445;28;20778;-67
2022/11/07 10:49:32;;;;;;;1.45;0.93;;;19.40;58.40;;;;;;6287928;28;20634;-68
2022/11/07 10:52:32;;;;;;;1.00;0.80;;;19.40;58.30;;;;;;6293077;28;20056;-67
2022/11/07 10:55:43;;;;;;;3.53;1.23;;;19.40;58.60;;;;;;6293976;28;20491;-67
2022/11/07 10:58:45;;;;;;;0.93;0.73;;;19.40;58.60;;;;;;6293578;28;20028;-68
2022/11/07 11:01:52;;;;;;;1.80;0.90;;;19.40;58.50;;;;;;6294119;28;20025;-68
2022/11/07 11:04:57;;;;;;;1.35;0.80;;;19.40;58.60;;;;;;6293445;28;20043;-68
2022/11/07 11:08:30;;;;;;;1.00;0.80;;;19.40;58.40;;;;;;6292521;28;20387;-67
2022/11/07 11:11:33;;;;;;;1.15;0.70;;;19.40;58.60;;;;;;6289316;28;20499;-68
2022/11/07 11:14:34;;;;;;;1.42;0.77;;;19.40;58.70;;;;;;6293388;28;20356;-68
2022/11/07 11:17:34;;;;;;;1.48;1.13;;;19.40;58.60;;;;;;6293401;28;20039;-69
2022/11/07 11:20:37;;;;;;;1.20;1.00;;;19.40;58.80;;;;;;6293313;28;20027;-69
2022/11/07 11:23:42;;;;;;;1.30;0.73;;;19.40;58.70;;;;;;6293139;28;20467;-68
2022/11/07 11:26:43;;;;;;;0.98;0.70;;;19.40;58.60;;;;;;6292075;28;20151;-68
2022/11/07 11:29:55;;;;;;;1.67;0.90;;;19.40;58.70;;;;;;6285101;28;20024;-69
2022/11/07 11:33:12;;;;;;;0.85;0.80;;;19.40;58.70;;;;;;6275507;28;20069;-67
2022/11/07 11:36:18;;;;;;;2.08;0.90;;;19.40;58.70;;;;;;6293391;28;20017;-68
2022/11/07 11:39:28;;;;;;;0.90;0.70;;;19.40;58.80;;;;;;6293326;28;20032;-69
2022/11/07 11:42:34;;;;;;;1.42;0.90;;;19.40;58.80;;;;;;6293575;28;20017;-68
2022/11/07 11:46:01;;;;;;;0.75;0.65;;;19.40;58.80;;;;;;6279977;28;20507;-68
2022/11/07 11:49:14;;;;;;;1.45;0.93;;;19.40;58.80;;;;;;6293015;28;20548;-68
2022/11/07 11:52:16;;;;;;;0.98;0.88;;;19.40;58.90;;;;;;6292791;28;20578;-68
2022/11/07 11:55:19;;;;;;;1.38;0.80;;;19.40;58.90;;;;;;6292902;28;20017;-66
2022/11/07 11:58:46;;;;;;;3.47;0.80;;;19.40;59.00;;;;;;6296906;28;20021;-68
2022/11/07 12:02:13;;;;;;;1.52;1.00;;;19.40;59.00;;;;;;6298164;28;20024;-68
2022/11/07 12:05:14;;;;;;;0.93;0.77;;;19.40;59.00;;;;;;6298017;28;20405;-68
2022/11/07 12:08:23;;;;;;;0.90;0.70;;;19.40;58.90;;;;;;6297120;28;20040;-67
2022/11/07 12:11:58;;;;;;;1.02;0.70;;;19.40;59.10;;;;;;6297805;28;20514;-67
2022/11/07 12:15:08;;;;;;;1.02;0.68;;;19.40;59.00;;;;;;6297647;28;20032;-68
2022/11/07 12:18:36;;;;;;;5.60;0.75;;;19.40;59.00;;;;;;6297708;28;20051;-68
2022/11/07 12:21:54;;;;;;;0.80;0.70;;;19.40;59.00;;;;;;6297581;28;20391;-68
2022/11/07 12:25:15;;;;;;;1.40;0.82;;;19.40;59.00;;;;;;6297053;28;20047;-68
2022/11/07 12:28:40;;;;;;;0.98;0.65;;;19.40;58.30;;;;;;6297175;28;20035;-68
2022/11/07 12:32:02;;;;;;;1.27;0.70;;;19.40;59.00;;;;;;6297454;28;20028;-67
2022/11/07 12:35:37;;;;;;;1.45;0.80;;;19.40;59.00;;;;;;6292607;28;20120;-68
2022/11/07 12:39:23;;;;;;;1.00;0.77;;;19.40;59.00;;;;;;6295868;28;20140;-68
2022/11/07 12:42:41;;;;;;;0.57;0.57;;;19.40;59.00;;;;;;6281104;28;20083;-67
2022/11/07 12:45:48;;;;;;;1.48;0.75;;;19.40;59.00;;;;;;6296578;28;20097;-67
2022/11/07 12:48:54;;;;;;;1.90;0.80;;;19.40;59.00;;;;;;6296855;28;20020;-68
2022/11/07 12:51:55;;;;;;;1.48;0.73;;;19.40;58.90;;;;;;6277335;28;20060;-68
2022/11/07 12:55:19;;;;;;;1.27;0.80;;;19.40;59.00;;;;;;6285412;28;20075;-68
2022/11/07 12:58:24;;;;;;;2.83;0.80;;;19.40;59.00;;;;;;6281860;28;20025;-68
2022/11/07 13:01:31;;;;;;;1.08;0.55;;;19.40;59.00;;;;;;6296772;28;20029;-68
2022/11/07 13:04:50;;;;;;;1.10;0.70;;;19.40;59.00;;;;;;6279219;28;20040;-68
2022/11/07 13:08:15;;;;;;;1.85;0.68;;;19.40;59.10;;;;;;6295006;28;20021;-68
2022/11/07 13:11:43;;;;;;;2.15;0.80;;;19.40;59.70;;;;;;6296377;28;20042;-68
2022/11/07 13:14:44;;;;;;;0.68;0.60;;;19.40;58.90;;;;;;6279800;28;20028;-68
2022/11/07 13:17:46;;;;;;;1.38;0.52;;;19.40;58.90;;;;;;6295774;28;20028;-68
2022/11/07 13:20:57;;;;;;;1.63;0.70;;;19.40;59.00;;;;;;6295827;28;20037;-68
2022/11/07 13:24:04;;;;;;;0.80;0.70;;;19.40;59.00;;;;;;6294960;28;20375;-67
2022/11/07 13:27:32;;;;;;;0.70;0.60;;;19.40;58.80;;;;;;6296520;28;20112;-68
2022/11/07 13:30:36;;;;;;;1.02;0.65;;;19.40;59.00;;;;;;6294796;28;20500;-68
2022/11/07 13:33:37;;;;;;;1.03;0.60;;;19.40;59.00;;;;;;6286432;28;20029;-68
2022/11/07 13:36:38;;;;;;;2.45;0.70;;;19.40;59.00;;;;;;6292347;28;20029;-68
2022/11/07 13:39:39;;;;;;;3.28;0.60;;;19.40;59.00;;;;;;6295207;28;20545;-68
2022/11/07 13:42:42;;;;;;;4.20;0.85;;;19.40;58.90;;;;;;6295423;28;20100;-68
2022/11/07 13:45:55;;;;;;;2.20;1.27;;;19.40;59.00;;;;;;6297273;28;20086;-68
2022/11/07 13:48:58;;;;;;;2.20;0.60;;;19.40;59.00;;;;;;6293743;28;20049;-68
2022/11/07 13:52:07;;;;;;;1.52;0.90;;;19.50;59.20;;;;;;6294798;28;20111;-68
2022/11/07 13:55:19;;;;;;;1.50;0.88;;;19.50;59.20;;;;;;6293817;28;20029;-68
2022/11/07 13:58:20;;;;;;;2.25;0.70;;;19.50;59.00;;;;;;6294073;28;20107;-68
2022/11/07 14:01:21;;;;;;;5.15;0.80;;;19.50;58.90;;;;;;6278179;28;20028;-67
2022/11/07 14:04:22;;;;;;;1.15;0.50;;;19.50;59.00;;;;;;6292659;28;20491;-67
2022/11/07 14:07:23;;;;;;;1.38;0.70;;;19.40;58.90;;;;;;6293976;28;20083;-67
2022/11/07 14:10:30;;;;;;;2.50;0.73;;;19.40;58.90;;;;;;6293185;28;20043;-67
2022/11/07 14:13:32;;;;;;;1.02;0.55;;;19.40;58.90;;;;;;6294118;28;20031;-67
2022/11/07 14:16:33;;;;;;;0.98;0.50;;;19.40;59.00;;;;;;6293578;28;20029;-68
2022/11/07 14:19:33;;;;;;;1.58;0.80;;;19.40;59.00;;;;;;6293087;28;20055;-68
2022/11/07 14:22:35;;;;;;;3.00;0.73;;;19.40;59.00;;;;;;6284064;28;20605;-67
2022/11/07 14:25:36;;;;;;;2.45;0.60;;;19.50;59.10;;;;;;6292408;28;20044;-68
2022/11/07 14:28:38;;;;;;;1.65;0.75;;;19.60;59.20;;;;;;6293358;28;20020;-68
2022/11/07 14:31:39;;;;;;;2.33;0.63;;;19.70;58.30;;;;;;6293662;28;20024;-67
2022/11/07 14:34:44;;;;;;;2.72;0.55;;;19.70;58.90;;;;;;6284070;28;20024;-67
2022/11/07 14:37:45;;;;;;;1.08;0.63;;;19.70;58.70;;;;;;6293081;28;20454;-68
2022/11/07 14:40:46;;;;;;;1.00;0.68;;;19.70;58.60;;;;;;6293382;28;20028;-67
2022/11/07 14:43:48;;;;;;;2.35;0.75;;;19.70;58.70;;;;;;6293573;28;20036;-68
2022/11/07 14:46:49;;;;;;;1.75;0.60;;;19.70;58.60;;;;;;6292619;28;20031;-68
2022/11/07 14:49:51;;;;;;;0.52;0.50;;;19.70;58.60;;;;;;6293226;28;20020;-69
2022/11/07 14:53:18;;;;;;;1.05;0.70;;;19.70;58.60;;;;;;6293017;28;20048;-68
2022/11/07 14:56:23;;;;;;;1.27;0.60;;;19.60;58.70;;;;;;6292697;28;20157;-67
2022/11/07 14:59:25;;;;;;;1.30;0.80;;;19.70;58.80;;;;;;6292866;28;20033;-67
2022/11/07 15:02:29;;;;;;;0.52;0.52;;;19.70;58.70;;;;;;6293847;28;20111;-68
2022/11/07 15:05:50;;;;;;;0.85;0.60;;;19.70;58.80;;;;;;6293320;28;20094;-67
2022/11/07 15:08:57;;;;;;;0.75;0.50;;;19.70;58.90;;;;;;6287963;28;20029;-66
2022/11/07 15:11:59;;;;;;;0.57;0.55;;;19.70;58.90;;;;;;6292331;28;20033;-68
2022/11/07 15:15:01;;;;;;;0.95;0.70;;;19.70;58.80;;;;;;6291198;28;20032;-68
2022/11/07 15:18:05;;;;;;;2.38;0.60;;;19.70;58.80;;;;;;6292316;28;20021;-67
2022/11/07 15:21:08;;;;;;;0.85;0.50;;;19.70;58.80;;;;;;6292758;28;20055;-67
2022/11/07 15:24:33;;;;;;;1.80;0.70;;;19.70;58.80;;;;;;6292502;28;20059;-68
2022/11/07 15:27:39;;;;;;;0.93;0.40;;;19.70;58.80;;;;;;6281068;28;20061;-67
2022/11/07 15:30:42;;;;;;;;;;;19.70;58.90;;;;;;6295285;28;20364;-68
2022/11/07 15:33:42;;;;;;;1.02;0.70;;;19.70;58.90;;;;;;6285145;28;19912;-67
2022/11/07 15:36:43;;;;;;;0.70;0.50;;;19.60;58.90;;;;;;6285487;28;20515;-68
2022/11/07 15:39:44;;;;;;;2.30;0.50;;;19.60;59.00;;;;;;6284848;28;20353;-68
2022/11/07 15:42:45;;;;;;;0.80;0.60;;;19.60;58.90;;;;;;6292517;28;20709;-68
2022/11/07 15:45:50;;;;;;;0.40;0.38;;;19.60;59.00;;;;;;6292555;28;20292;-68
2022/11/07 15:48:51;;;;;;;0.57;0.57;;;19.60;59.00;;;;;;6290469;28;20028;-68
2022/11/07 15:51:52;;;;;;;1.27;0.55;;;19.60;59.10;;;;;;6292341;28;20044;-68
2022/11/07 15:54:52;;;;;;;1.35;0.60;;;19.60;59.10;;;;;;6293167;28;20391;-68
2022/11/07 15:57:53;;;;;;;1.77;0.65;;;19.60;59.10;;;;;;6284641;28;20108;-68
2022/11/07 16:00:54;;;;;;;1.98;0.63;;;19.60;59.10;;;;;;6292848;28;20040;-68
2022/11/07 16:03:55;;;;;;;0.85;0.60;;;19.60;59.20;;;;;;6292490;28;20446;-68
2022/11/07 16:06:56;;;;;;;5.05;0.52;;;19.60;59.20;;;;;;6292051;28;20023;-68
2022/11/07 16:09:56;;;;;;;0.60;0.52;;;19.60;59.10;;;;;;6292659;28;20086;-67
2022/11/07 16:12:57;;;;;;;1.75;0.80;;;19.60;59.20;;;;;;6292456;28;20025;-67